Monte Real Airport Monte Real, Leiria PT
ICAO: LPMR
IATA:
Category: Medium
Scheduled Services: No

Elevation: 187 ft
TransAlt. 4000 ft.

Airport Communications:
APP:121.7
GND:119.725
TWR:122.1

LPMR Zoom In..

Runways:

(A) RW 01 length 8068 ft width 148 ft
ILS 109.15 / hdg 6

(B) RW 19 length 8068 ft width 148 ft
ILS 110.30 / hdg 186

Location; LPMR
Day. 22 / Time. 00.00 Zulu
* QNH: 1011
* Temperature: 06° c. 42.8°f.
* Wind from: 190° Speed 01 kn.
Dewpoint: 05° c.
Visibility: 10 km or more,
No clouds below 1,500 m.
No cumulonimbus, and no significant weather
fenomena in the aerodrome or its vicinity.

LPMR 220000Z 19001KT CAVOK 06/05 Q1011


Wind From 190°
Speed 01 kn.

YouTube Music Video
 
jpsmedia.com for Web Design  worldairports.se 2018   terms of use